Time;durP1;ratioP1;P1;durP2;ratioP2;P2;SDS_P1;SDS_P2;PMS_P1;PMS_P2;Temp;Humidity;BMP_temperature;BMP_pressure;BME280_temperature;BME280_humidity;BME280_pressure;Samples;Min_cycle;Max_cycle;Signal;HPM_P1;HPM_P2
2022/06/19 00:00:51;;;;;;;5.72;5.15;;;;;;;;;;5141977;27;20046;-43
2022/06/19 00:03:28;;;;;;;7.40;5.20;;;;;;;;;;5141574;27;20070;-43
2022/06/19 00:05:53;;;;;;;7.15;4.38;;;;;;;;;;5136999;27;20393;-46
2022/06/19 00:08:19;;;;;;;6.10;5.43;;;;;;;;;;5137418;27;20563;-44
2022/06/19 00:10:44;;;;;;;7.40;5.20;;;;;;;;;;5138229;27;20185;-47
2022/06/19 00:13:09;;;;;;;7.82;4.40;;;;;;;;;;5138133;27;20045;-44
2022/06/19 00:15:35;;;;;;;9.73;5.82;;;;;;;;;;5139229;27;20058;-45
2022/06/19 00:18:00;;;;;;;13.57;6.50;;;;;;;;;;5142197;27;20091;-47
2022/06/19 00:20:25;;;;;;;9.27;6.15;;;;;;;;;;5136548;27;20955;-44
2022/06/19 00:22:51;;;;;;;6.05;4.38;;;;;;;;;;5136948;27;20586;-47
2022/06/19 00:25:16;;;;;;;5.60;3.97;;;;;;;;;;5140769;27;20280;-48
2022/06/19 00:27:41;;;;;;;10.63;4.50;;;;;;;;;;5137411;27;20079;-49
2022/06/19 00:30:08;;;;;;;8.73;5.00;;;;;;;;;;5144192;27;20027;-44
2022/06/19 00:32:34;;;;;;;6.15;5.50;;;;;;;;;;5133519;27;20168;-44
2022/06/19 00:34:59;;;;;;;4.43;3.65;;;;;;;;;;5137996;27;20074;-45
2022/06/19 00:37:24;;;;;;;6.13;5.53;;;;;;;;;;5137860;27;20134;-48
2022/06/19 00:39:51;;;;;;;14.32;6.75;;;;;;;;;;5137029;27;20078;-45
2022/06/19 00:42:16;;;;;;;7.78;5.68;;;;;;;;;;5134483;27;20070;-47
2022/06/19 00:44:42;;;;;;;10.30;6.93;;;;;;;;;;5137016;27;20035;-48
2022/06/19 00:47:08;;;;;;;6.80;6.10;;;;;;;;;;5136259;27;20046;-45
2022/06/19 00:49:38;;;;;;;8.88;5.72;;;;;;;;;;5138628;27;20494;-46
2022/06/19 00:52:06;;;;;;;15.57;5.53;;;;;;;;;;5139145;27;20039;-44
2022/06/19 00:54:36;;;;;;;7.20;4.80;;;;;;;;;;5139844;27;20050;-47
2022/06/19 00:57:01;;;;;;;10.00;5.72;;;;;;;;;;5138673;27;20509;-47
2022/06/19 00:59:28;;;;;;;9.43;4.78;;;;;;;;;;5134858;27;20078;-48
2022/06/19 01:01:53;;;;;;;6.32;4.85;;;;;;;;;;5137489;27;20047;-44
2022/06/19 01:04:22;;;;;;;11.43;4.78;;;;;;;;;;5137915;27;20042;-44
2022/06/19 01:06:48;;;;;;;5.65;5.05;;;;;;;;;;5138575;27;20138;-45
2022/06/19 01:09:14;;;;;;;6.85;5.85;;;;;;;;;;5137838;27;20059;-49
2022/06/19 01:11:40;;;;;;;7.55;5.93;;;;;;;;;;5135161;27;20046;-48
2022/06/19 01:14:08;;;;;;;8.27;3.75;;;;;;;;;;5138970;27;20038;-48
2022/06/19 01:16:33;;;;;;;7.38;2.75;;;;;;;;;;5138676;27;20063;-49
2022/06/19 01:18:59;;;;;;;5.47;3.50;;;;;;;;;;5141362;27;20093;-46
2022/06/19 01:21:48;;;;;;;6.25;3.50;;;;;;;;;;5137723;27;20035;-48
2022/06/19 01:24:13;;;;;;;9.32;3.83;;;;;;;;;;5140655;27;20099;-51
2022/06/19 01:26:40;;;;;;;7.15;3.60;;;;;;;;;;5137178;27;20410;-44
2022/06/19 01:29:06;;;;;;;8.45;4.03;;;;;;;;;;5137715;27;20043;-49
2022/06/19 01:31:35;;;;;;;5.20;4.47;;;;;;;;;;5139604;27;20067;-46
2022/06/19 01:34:00;;;;;;;5.97;4.70;;;;;;;;;;5142638;27;20494;-48
2022/06/19 01:36:26;;;;;;;5.43;4.55;;;;;;;;;;5137602;27;20038;-44
2022/06/19 01:38:53;;;;;;;8.13;5.95;;;;;;;;;;5137330;27;20107;-45
2022/06/19 01:41:36;;;;;;;5.18;3.70;;;;;;;;;;5139280;27;20069;-48
2022/06/19 01:44:01;;;;;;;14.70;4.03;;;;;;;;;;5135635;27;20039;-46
2022/06/19 01:46:28;;;;;;;6.03;4.70;;;;;;;;;;5139655;27;20485;-44
2022/06/19 01:48:53;;;;;;;7.22;5.13;;;;;;;;;;5139606;27;20053;-43
2022/06/19 01:51:19;;;;;;;13.10;6.15;;;;;;;;;;5138308;27;20050;-45
2022/06/19 01:53:48;;;;;;;10.63;4.70;;;;;;;;;;5138081;27;20051;-48
2022/06/19 01:56:13;;;;;;;7.63;5.53;;;;;;;;;;5140987;27;20126;-44
2022/06/19 01:58:44;;;;;;;8.73;4.57;;;;;;;;;;5139290;27;20043;-50
2022/06/19 02:01:10;;;;;;;6.28;4.03;;;;;;;;;;5142024;27;20050;-45
2022/06/19 02:04:01;;;;;;;12.98;5.25;;;;;;;;;;5140056;27;20060;-44
2022/06/19 02:06:28;;;;;;;4.70;4.22;;;;;;;;;;5134636;27;20054;-46
2022/06/19 02:08:54;;;;;;;5.80;4.43;;;;;;;;;;5136088;27;20047;-46
2022/06/19 02:11:20;;;;;;;6.13;4.65;;;;;;;;;;5139874;27;20509;-45
2022/06/19 02:13:46;;;;;;;9.38;5.75;;;;;;;;;;5136556;27;20082;-47
2022/06/19 02:16:15;;;;;;;7.25;3.97;;;;;;;;;;5141085;27;20103;-44
2022/06/19 02:18:42;;;;;;;4.72;2.95;;;;;;;;;;5140659;27;20051;-44
2022/06/19 02:21:11;;;;;;;11.68;5.03;;;;;;;;;;5136720;27;20119;-47
2022/06/19 02:23:36;;;;;;;6.63;5.18;;;;;;;;;;5140306;27;20512;-48
2022/06/19 02:26:03;;;;;;;7.68;5.95;;;;;;;;;;5137092;27;20039;-45
2022/06/19 02:28:30;;;;;;;6.72;3.72;;;;;;;;;;5138868;27;20034;-46
2022/06/19 02:30:55;;;;;;;6.45;5.20;;;;;;;;;;5139083;27;20061;-47
2022/06/19 02:33:23;;;;;;;7.45;5.78;;;;;;;;;;5139431;27;20489;-45
2022/06/19 02:35:48;;;;;;;8.63;6.72;;;;;;;;;;5140206;27;20042;-47
2022/06/19 02:38:18;;;;;;;4.43;3.45;;;;;;;;;;5133447;27;20468;-45
2022/06/19 02:40:55;;;;;;;7.53;4.78;;;;;;;;;;5141364;27;20051;-44
2022/06/19 02:43:28;;;;;;;6.63;5.32;;;;;;;;;;5136912;27;20047;-46
2022/06/19 02:45:54;;;;;;;7.85;5.90;;;;;;;;;;5140272;27;20054;-45
2022/06/19 02:48:24;;;;;;;4.32;3.92;;;;;;;;;;5135614;27;20035;-46
2022/06/19 02:50:50;;;;;;;3.72;3.03;;;;;;;;;;5132596;27;20035;-47
2022/06/19 02:53:15;;;;;;;9.25;4.93;;;;;;;;;;5137229;27;20114;-47
2022/06/19 02:55:41;;;;;;;6.15;4.05;;;;;;;;;;5135432;27;20050;-47
2022/06/19 02:58:07;;;;;;;6.32;4.85;;;;;;;;;;5140714;27;20491;-50
2022/06/19 03:00:33;;;;;;;19.10;5.40;;;;;;;;;;5142542;27;20042;-49
2022/06/19 03:02:59;;;;;;;4.60;3.08;;;;;;;;;;5143248;27;20554;-45
2022/06/19 03:05:26;;;;;;;12.00;5.38;;;;;;;;;;5139587;27;20049;-45
2022/06/19 03:07:52;;;;;;;6.80;5.63;;;;;;;;;;5143074;27;20450;-43
2022/06/19 03:10:17;;;;;;;8.25;5.65;;;;;;;;;;5140960;27;20081;-44
2022/06/19 03:12:43;;;;;;;19.98;5.88;;;;;;;;;;5142019;27;20069;-46
2022/06/19 03:15:09;;;;;;;9.52;6.28;;;;;;;;;;5140695;27;20113;-46
2022/06/19 03:17:35;;;;;;;10.38;6.63;;;;;;;;;;5140946;27;20054;-44
2022/06/19 03:20:00;;;;;;;11.90;8.00;;;;;;;;;;5141517;27;20408;-46
2022/06/19 03:22:25;;;;;;;6.78;5.07;;;;;;;;;;5140594;27;20533;-45
2022/06/19 03:24:51;;;;;;;12.80;6.00;;;;;;;;;;5141055;27;20706;-44
2022/06/19 03:27:16;;;;;;;16.70;6.72;;;;;;;;;;5139455;27;20062;-44
2022/06/19 03:29:42;;;;;;;8.90;5.70;;;;;;;;;;5141205;27;20126;-48
2022/06/19 03:32:10;;;;;;;8.15;5.82;;;;;;;;;;5144299;27;20446;-47
2022/06/19 03:34:36;;;;;;;7.28;5.32;;;;;;;;;;5143500;27;20078;-48
2022/06/19 03:37:01;;;;;;;12.68;6.22;;;;;;;;;;5140158;27;20457;-45
2022/06/19 03:39:26;;;;;;;7.25;6.15;;;;;;;;;;5142361;27;20042;-45
2022/06/19 03:41:52;;;;;;;7.53;5.85;;;;;;;;;;5137528;27;20502;-46
2022/06/19 03:44:17;;;;;;;7.70;6.80;;;;;;;;;;5143607;27;20442;-44
2022/06/19 03:46:42;;;;;;;7.20;5.55;;;;;;;;;;5143563;27;20043;-45
2022/06/19 03:49:08;;;;;;;11.18;6.50;;;;;;;;;;5140923;27;20043;-44
2022/06/19 03:51:34;;;;;;;11.50;6.22;;;;;;;;;;5141272;27;20475;-46
2022/06/19 03:53:59;;;;;;;12.68;6.75;;;;;;;;;;5140723;27;20502;-44
2022/06/19 03:56:26;;;;;;;10.85;5.80;;;;;;;;;;5140801;27;20051;-46
2022/06/19 03:58:52;;;;;;;8.73;7.43;;;;;;;;;;5140288;27;20027;-47
2022/06/19 04:01:18;;;;;;;6.40;5.85;;;;;;;;;;5139497;27;20605;-44
2022/06/19 04:03:45;;;;;;;17.40;7.47;;;;;;;;;;5141105;27;20138;-44
2022/06/19 04:06:12;;;;;;;10.32;5.68;;;;;;;;;;5138898;27;20055;-44
2022/06/19 04:08:37;;;;;;;7.18;6.47;;;;;;;;;;5139431;27;20062;-48
2022/06/19 04:11:04;;;;;;;10.43;7.32;;;;;;;;;;5141623;27;20042;-49
2022/06/19 04:13:29;;;;;;;17.27;6.20;;;;;;;;;;5141494;27;20098;-45
2022/06/19 04:15:54;;;;;;;6.90;6.13;;;;;;;;;;5139689;27;20047;-48
2022/06/19 04:18:20;;;;;;;16.50;7.45;;;;;;;;;;5140353;27;20201;-45
2022/06/19 04:20:45;;;;;;;11.50;6.63;;;;;;;;;;5142926;27;20429;-46
2022/06/19 04:23:11;;;;;;;7.03;6.30;;;;;;;;;;5139477;27;20046;-47
2022/06/19 04:25:37;;;;;;;10.30;7.22;;;;;;;;;;5140308;27;20454;-47
2022/06/19 04:28:02;;;;;;;14.50;6.43;;;;;;;;;;5139230;27;20045;-47
2022/06/19 04:30:27;;;;;;;11.38;5.65;;;;;;;;;;5139040;27;20039;-48
2022/06/19 04:32:53;;;;;;;6.35;5.78;;;;;;;;;;5142207;27;20049;-47
2022/06/19 04:35:18;;;;;;;10.23;7.82;;;;;;;;;;5141037;27;20034;-51
2022/06/19 04:37:43;;;;;;;11.13;7.20;;;;;;;;;;5142463;27;20057;-47
2022/06/19 04:40:10;;;;;;;9.32;6.85;;;;;;;;;;5139450;27;20129;-49
2022/06/19 04:42:35;;;;;;;7.57;6.57;;;;;;;;;;5139607;27;20232;-46
2022/06/19 04:45:00;;;;;;;17.50;7.70;;;;;;;;;;5140122;27;21045;-46
2022/06/19 04:47:26;;;;;;;9.38;6.10;;;;;;;;;;5139080;27;20412;-47
2022/06/19 04:49:51;;;;;;;12.23;4.80;;;;;;;;;;5140261;27;20447;-47
2022/06/19 04:52:16;;;;;;;12.40;5.30;;;;;;;;;;5142217;27;20477;-46
2022/06/19 04:54:42;;;;;;;6.00;4.97;;;;;;;;;;5139684;27;20050;-43
2022/06/19 04:57:07;;;;;;;8.45;5.97;;;;;;;;;;5138006;27;20039;-43
2022/06/19 04:59:32;;;;;;;4.85;3.38;;;;;;;;;;5138859;27;20126;-45
2022/06/19 05:01:58;;;;;;;8.48;5.68;;;;;;;;;;5138781;27;20452;-44
2022/06/19 05:04:23;;;;;;;12.38;5.00;;;;;;;;;;5139769;27;20379;-46
2022/06/19 05:06:48;;;;;;;10.13;6.15;;;;;;;;;;5141081;27;20031;-46
2022/06/19 05:09:14;;;;;;;4.25;3.40;;;;;;;;;;5139583;27;20494;-45
2022/06/19 05:11:39;;;;;;;9.18;3.85;;;;;;;;;;5138914;27;20099;-46
2022/06/19 05:14:04;;;;;;;4.88;3.38;;;;;;;;;;5139438;27;20145;-44
2022/06/19 05:16:30;;;;;;;5.85;4.32;;;;;;;;;;5137100;27;20096;-47
2022/06/19 05:18:56;;;;;;;8.90;4.07;;;;;;;;;;5133235;27;20092;-46
2022/06/19 05:21:23;;;;;;;12.82;4.40;;;;;;;;;;5139546;27;20046;-45
2022/06/19 05:23:50;;;;;;;13.98;3.95;;;;;;;;;;5143290;27;20146;-45
2022/06/19 05:26:16;;;;;;;10.88;4.40;;;;;;;;;;5136835;27;20052;-47
2022/06/19 05:28:42;;;;;;;18.17;3.50;;;;;;;;;;5137815;27;20035;-45
2022/06/19 05:31:07;;;;;;;6.15;4.32;;;;;;;;;;5140382;27;20043;-46
2022/06/19 05:33:33;;;;;;;6.32;3.25;;;;;;;;;;5140092;27;20051;-47
2022/06/19 05:35:58;;;;;;;21.00;5.70;;;;;;;;;;5140597;27;20031;-45
2022/06/19 05:38:24;;;;;;;11.63;3.60;;;;;;;;;;5138109;27;20154;-47
2022/06/19 05:40:51;;;;;;;8.15;3.20;;;;;;;;;;5140513;27;20494;-43
2022/06/19 05:43:16;;;;;;;6.90;3.90;;;;;;;;;;5136826;27;20443;-47
2022/06/19 05:45:48;;;;;;;6.20;4.28;;;;;;;;;;5141174;27;20057;-47
2022/06/19 05:48:13;;;;;;;6.97;4.25;;;;;;;;;;5144094;27;20042;-47
2022/06/19 05:50:39;;;;;;;8.68;4.32;;;;;;;;;;5141640;27;20027;-46
2022/06/19 05:53:04;;;;;;;3.25;2.92;;;;;;;;;;5139141;27;20649;-48
2022/06/19 05:55:29;;;;;;;3.80;3.20;;;;;;;;;;5138355;27;20062;-45
2022/06/19 05:57:55;;;;;;;12.45;3.75;;;;;;;;;;5140645;27;20316;-45
2022/06/19 06:00:20;;;;;;;48.00;7.68;;;;;;;;;;5135968;27;20537;-46
2022/06/19 06:02:46;;;;;;;12.77;3.65;;;;;;;;;;5143988;27;20035;-46
2022/06/19 06:05:11;;;;;;;4.57;2.97;;;;;;;;;;5141023;27;20608;-51
2022/06/19 06:07:36;;;;;;;3.38;3.08;;;;;;;;;;5138689;27;20035;-49
2022/06/19 06:10:02;;;;;;;5.28;3.78;;;;;;;;;;5136567;27;20546;-50
2022/06/19 06:12:27;;;;;;;7.13;4.15;;;;;;;;;;5138515;27;20040;-47
2022/06/19 06:14:53;;;;;;;8.88;5.50;;;;;;;;;;5140783;27;20054;-48
2022/06/19 06:17:18;;;;;;;4.38;2.92;;;;;;;;;;5137379;27;20069;-46
2022/06/19 06:19:43;;;;;;;4.28;3.85;;;;;;;;;;5136270;27;20094;-47
2022/06/19 06:22:09;;;;;;;4.85;3.67;;;;;;;;;;5135964;27;20038;-44
2022/06/19 06:24:34;;;;;;;9.75;4.18;;;;;;;;;;5138748;27;20051;-46
2022/06/19 06:27:02;;;;;;;8.02;4.38;;;;;;;;;;5138763;27;20183;-49
2022/06/19 06:29:28;;;;;;;6.75;4.00;;;;;;;;;;5140563;27;20098;-47
2022/06/19 06:31:53;;;;;;;6.63;3.95;;;;;;;;;;5138422;27;20127;-45
2022/06/19 06:34:19;;;;;;;8.13;4.93;;;;;;;;;;5143858;27;20042;-48
2022/06/19 06:36:44;;;;;;;8.10;4.50;;;;;;;;;;5139994;27;20058;-47
2022/06/19 06:39:10;;;;;;;7.03;3.92;;;;;;;;;;5141379;27;20130;-48
2022/06/19 06:41:36;;;;;;;9.15;4.90;;;;;;;;;;5142523;27;20046;-49
2022/06/19 06:44:02;;;;;;;9.10;5.10;;;;;;;;;;5142370;27;20035;-47
2022/06/19 06:46:27;;;;;;;6.97;4.60;;;;;;;;;;5140926;27;20058;-50
2022/06/19 06:48:59;;;;;;;4.35;3.70;;;;;;;;;;5144614;27;20494;-46
2022/06/19 06:51:26;;;;;;;6.93;4.13;;;;;;;;;;5143017;27;20131;-49
2022/06/19 06:53:51;;;;;;;3.78;3.40;;;;;;;;;;5142877;27;20046;-48
2022/06/19 06:56:17;;;;;;;4.03;3.58;;;;;;;;;;5144669;27;20050;-46
2022/06/19 06:58:43;;;;;;;7.00;4.13;;;;;;;;;;5144006;27;20054;-50
2022/06/19 07:01:10;;;;;;;4.00;2.60;;;;;;;;;;5142438;27;20083;-49
2022/06/19 07:03:36;;;;;;;3.42;3.13;;;;;;;;;;5143143;27;20659;-46
2022/06/19 07:06:01;;;;;;;14.98;3.30;;;;;;;;;;5142833;27;20137;-58
2022/06/19 07:08:27;;;;;;;10.15;3.88;;;;;;;;;;5142381;27;20125;-58
2022/06/19 07:10:52;;;;;;;4.13;3.33;;;;;;;;;;5138612;27;20099;-58
2022/06/19 07:13:18;;;;;;;19.33;4.63;;;;;;;;;;5138901;27;20497;-59
2022/06/19 07:15:44;;;;;;;6.13;2.53;;;;;;;;;;5141756;27;20051;-58
2022/06/19 07:18:09;;;;;;;3.33;2.88;;;;;;;;;;5141353;27;20059;-55
2022/06/19 07:20:35;;;;;;;4.03;3.58;;;;;;;;;;5126371;27;20035;-55
2022/06/19 07:23:02;;;;;;;6.88;4.10;;;;;;;;;;5141028;27;20413;-54
2022/06/19 07:25:27;;;;;;;11.63;3.95;;;;;;;;;;5142845;27;20047;-51
2022/06/19 07:27:53;;;;;;;5.57;4.50;;;;;;;;;;5143775;27;20103;-54
2022/06/19 07:30:20;;;;;;;4.03;3.30;;;;;;;;;;5140949;27;20045;-59
2022/06/19 07:32:46;;;;;;;13.63;4.43;;;;;;;;;;5138703;27;20039;-58
2022/06/19 07:35:11;;;;;;;3.50;2.40;;;;;;;;;;5138789;27;20567;-58
2022/06/19 07:37:39;;;;;;;4.03;3.17;;;;;;;;;;5144847;27;20042;-58
2022/06/19 07:40:05;;;;;;;7.93;3.20;;;;;;;;;;5144114;27;20047;-58
2022/06/19 07:42:31;;;;;;;6.78;4.28;;;;;;;;;;5137520;27;20046;-58
2022/06/19 07:44:56;;;;;;;5.05;3.72;;;;;;;;;;5139202;27;20071;-56
2022/06/19 07:50:12;;;;;;;7.70;3.45;;;;;;;;;;5142907;27;20093;-57
2022/06/19 07:52:39;;;;;;;20.05;3.33;;;;;;;;;;5140388;27;20090;-56
2022/06/19 07:55:05;;;;;;;9.63;4.00;;;;;;;;;;5139260;27;20031;-57
2022/06/19 07:57:30;;;;;;;10.20;3.05;;;;;;;;;;5140781;27;20039;-56
2022/06/19 07:59:56;;;;;;;2.15;1.80;;;;;;;;;;5140272;27;20056;-57
2022/06/19 08:02:24;;;;;;;19.90;5.57;;;;;;;;;;5140057;27;20086;-55
2022/06/19 08:04:50;;;;;;;8.70;4.32;;;;;;;;;;5140906;27;20399;-56
2022/06/19 08:07:15;;;;;;;12.27;3.85;;;;;;;;;;5137828;27;20070;-56
2022/06/19 08:09:41;;;;;;;9.23;2.72;;;;;;;;;;5142041;27;20144;-56
2022/06/19 08:12:06;;;;;;;4.57;2.60;;;;;;;;;;5141663;27;20086;-57
2022/06/19 08:14:32;;;;;;;6.57;2.75;;;;;;;;;;5120247;27;20119;-56
2022/06/19 08:16:57;;;;;;;13.23;3.17;;;;;;;;;;5143493;27;20046;-56
2022/06/19 08:19:22;;;;;;;8.15;4.72;;;;;;;;;;5140571;27;20063;-57
2022/06/19 08:21:48;;;;;;;5.40;2.63;;;;;;;;;;5139723;27;20030;-56
2022/06/19 08:24:14;;;;;;;23.92;5.75;;;;;;;;;;5137487;27;20145;-56
2022/06/19 08:26:40;;;;;;;6.50;2.92;;;;;;;;;;5139309;27;20062;-56
2022/06/19 08:29:05;;;;;;;7.60;3.83;;;;;;;;;;5138706;27;20536;-54
2022/06/19 08:31:31;;;;;;;15.93;2.22;;;;;;;;;;5139483;27;20565;-56
2022/06/19 08:33:56;;;;;;;11.77;2.47;;;;;;;;;;5139398;27;20043;-58
2022/06/19 08:36:24;;;;;;;13.23;4.53;;;;;;;;;;5142312;27;20051;-58
2022/06/19 08:38:51;;;;;;;21.27;5.32;;;;;;;;;;5140400;27;20050;-57
2022/06/19 08:41:35;;;;;;;9.25;3.08;;;;;;;;;;5137016;27;20070;-57
2022/06/19 08:44:04;;;;;;;28.77;6.60;;;;;;;;;;5140661;27;20521;-56
2022/06/19 08:46:35;;;;;;;21.85;3.95;;;;;;;;;;5139700;27;20091;-57
2022/06/19 08:49:00;;;;;;;15.10;7.03;;;;;;;;;;5142211;27;20047;-57
2022/06/19 08:51:33;;;;;;;3.30;2.42;;;;;;;;;;5140029;27;20046;-57
2022/06/19 08:54:16;;;;;;;4.47;2.65;;;;;;;;;;5137812;27;20083;-57
2022/06/19 08:56:42;;;;;;;3.63;1.65;;;;;;;;;;5138025;27;20047;-58
2022/06/19 08:59:07;;;;;;;2.83;1.85;;;;;;;;;;5144213;27;20042;-58
2022/06/19 09:01:35;;;;;;;17.15;2.95;;;;;;;;;;5139922;27;20477;-58
2022/06/19 09:07:13;;;;;;;3.40;2.30;;;;;;;;;;5137664;27;20072;-53
2022/06/19 09:09:57;;;;;;;6.90;2.17;;;;;;;;;;5139543;27;20595;-57
2022/06/19 09:12:42;;;;;;;6.85;2.67;;;;;;;;;;5138741;27;20104;-55
2022/06/19 09:15:12;;;;;;;8.00;3.15;;;;;;;;;;5104996;27;20035;-57
2022/06/19 09:17:40;;;;;;;4.00;2.60;;;;;;;;;;5139703;27;20038;-57
2022/06/19 09:20:15;;;;;;;14.95;3.72;;;;;;;;;;5139891;27;20790;-57
2022/06/19 09:22:51;;;;;;;29.10;5.13;;;;;;;;;;5141772;27;20065;-57
2022/06/19 09:25:35;;;;;;;7.22;3.45;;;;;;;;;;5139972;27;20050;-57
2022/06/19 09:28:21;;;;;;;4.25;2.95;;;;;;;;;;5140639;27;20101;-57
2022/06/19 09:30:49;;;;;;;5.65;3.03;;;;;;;;;;5136717;27;20031;-56
2022/06/19 09:33:26;;;;;;;22.17;2.83;;;;;;;;;;5137768;27;20099;-57
2022/06/19 09:35:56;;;;;;;11.02;3.78;;;;;;;;;;5137221;27;20046;-56
2022/06/19 09:38:29;;;;;;;230.90;35.10;;;;;;;;;;5134968;27;20066;-56
2022/06/19 09:40:57;;;;;;;10.85;3.85;;;;;;;;;;5141334;27;20109;-57
2022/06/19 09:43:23;;;;;;;25.58;5.47;;;;;;;;;;5138813;27;20051;-56
2022/06/19 09:45:57;;;;;;;15.82;3.30;;;;;;;;;;5138878;27;20069;-57
2022/06/19 09:48:26;;;;;;;66.72;11.10;;;;;;;;;;5138860;27;20049;-58
2022/06/19 09:50:58;;;;;;;28.92;3.90;;;;;;;;;;5140464;27;20046;-58
2022/06/19 09:53:35;;;;;;;7.95;3.72;;;;;;;;;;5139471;27;20047;-56
2022/06/19 09:56:20;;;;;;;8.55;2.80;;;;;;;;;;5141080;27;20046;-57
2022/06/19 09:58:48;;;;;;;7.40;3.67;;;;;;;;;;5136086;27;20046;-59
2022/06/19 10:01:14;;;;;;;7.93;2.97;;;;;;;;;;5136983;27;20066;-58
2022/06/19 10:03:41;;;;;;;30.83;6.72;;;;;;;;;;5133186;27;20067;-59
2022/06/19 10:06:10;;;;;;;6.72;3.78;;;;;;;;;;5135590;27;20049;-59
2022/06/19 10:08:53;;;;;;;59.78;13.38;;;;;;;;;;5136792;27;20049;-58
2022/06/19 10:11:22;;;;;;;6.63;4.25;;;;;;;;;;5138927;27;20099;-59
2022/06/19 10:13:53;;;;;;;7.40;3.65;;;;;;;;;;5139218;27;20475;-58
2022/06/19 10:16:27;;;;;;;20.38;3.40;;;;;;;;;;5138068;27;20046;-57
2022/06/19 10:18:54;;;;;;;9.95;4.03;;;;;;;;;;5137222;27;20336;-58
2022/06/19 10:24:10;;;;;;;4.18;2.85;;;;;;;;;;5136727;27;20131;-59
2022/06/19 10:26:35;;;;;;;7.07;2.20;;;;;;;;;;5136296;27;20044;-58
2022/06/19 10:29:06;;;;;;;12.32;4.03;;;;;;;;;;5138025;27;20410;-57
2022/06/19 10:31:41;;;;;;;13.93;4.43;;;;;;;;;;5140204;27;20054;-59
2022/06/19 10:34:24;;;;;;;3.70;2.92;;;;;;;;;;5140587;27;20046;-58
2022/06/19 10:37:05;;;;;;;7.70;4.50;;;;;;;;;;5135880;27;20039;-58
2022/06/19 10:39:33;;;;;;;7.50;3.47;;;;;;;;;;5136286;27;20038;-59
2022/06/19 10:42:01;;;;;;;13.55;3.63;;;;;;;;;;5136352;27;20857;-58
2022/06/19 10:44:32;;;;;;;8.73;3.47;;;;;;;;;;5139157;27;20057;-58
2022/06/19 10:47:16;;;;;;;18.88;4.20;;;;;;;;;;5140949;27;20497;-58
2022/06/19 10:50:00;;;;;;;4.13;2.20;;;;;;;;;;5139653;27;20058;-59
2022/06/19 10:52:30;;;;;;;3.45;2.08;;;;;;;;;;5136127;27;20078;-59
2022/06/19 10:54:59;;;;;;;7.75;2.90;;;;;;;;;;5137217;27;20051;-59
2022/06/19 10:57:25;;;;;;;21.23;2.22;;;;;;;;;;5134644;27;20110;-59
2022/06/19 10:59:50;;;;;;;5.72;2.30;;;;;;;;;;5134912;27;20586;-59
2022/06/19 11:05:14;;;;;;;7.55;2.53;;;;;;;;;;5136801;27;20093;-59
2022/06/19 11:07:40;;;;;;;10.27;2.03;;;;;;;;;;5140474;27;20898;-59
2022/06/19 11:10:10;;;;;;;3.53;2.15;;;;;;;;;;5137769;27;20138;-59
2022/06/19 11:12:46;;;;;;;3.00;2.25;;;;;;;;;;5134520;27;20070;-59
2022/06/19 11:15:25;;;;;;;4.15;1.92;;;;;;;;;;5138899;27;20050;-59
2022/06/19 11:18:13;;;;;;;5.90;3.10;;;;;;;;;;5138656;27;20158;-59
2022/06/19 11:20:40;;;;;;;8.02;2.50;;;;;;;;;;5139395;27;20279;-59
2022/06/19 11:23:24;;;;;;;4.53;2.72;;;;;;;;;;5144537;27;20043;-59
2022/06/19 11:25:59;;;;;;;3.47;2.70;;;;;;;;;;5139927;27;20126;-59
2022/06/19 11:28:37;;;;;;;4.45;2.10;;;;;;;;;;5142160;27;20047;-59
2022/06/19 11:31:11;;;;;;;6.65;2.45;;;;;;;;;;5140560;27;20051;-59
2022/06/19 11:33:37;;;;;;;5.45;2.85;;;;;;;;;;5139074;27;20035;-59
2022/06/19 11:36:05;;;;;;;4.13;2.55;;;;;;;;;;5138757;27;20044;-59
2022/06/19 11:38:36;;;;;;;4.55;1.88;;;;;;;;;;5139902;27;20038;-59
2022/06/19 11:41:13;;;;;;;4.78;2.88;;;;;;;;;;5139822;27;20129;-59
2022/06/19 11:43:39;;;;;;;8.13;2.35;;;;;;;;;;5141518;27;20047;-59
2022/06/19 11:46:06;;;;;;;3.33;2.08;;;;;;;;;;5141425;27;20051;-59
2022/06/19 11:48:31;;;;;;;7.22;2.50;;;;;;;;;;5139024;27;20406;-59
2022/06/19 11:50:57;;;;;;;22.30;3.22;;;;;;;;;;5143366;27;20491;-59
2022/06/19 11:53:23;;;;;;;3.50;2.35;;;;;;;;;;5144410;27;20578;-60
2022/06/19 11:56:11;;;;;;;2.63;1.88;;;;;;;;;;5140646;27;20495;-60
2022/06/19 11:58:41;;;;;;;6.40;2.67;;;;;;;;;;5139516;27;20767;-60
2022/06/19 12:01:06;;;;;;;3.85;2.80;;;;;;;;;;5141351;27;20042;-59
2022/06/19 12:03:37;;;;;;;13.65;2.20;;;;;;;;;;5143582;27;20047;-60
2022/06/19 12:06:04;;;;;;;3.05;1.75;;;;;;;;;;5140352;27;20094;-60
2022/06/19 12:08:32;;;;;;;4.78;1.55;;;;;;;;;;5138558;27;20107;-60
2022/06/19 12:11:03;;;;;;;6.30;3.22;;;;;;;;;;5141625;27;20042;-60
2022/06/19 12:13:33;;;;;;;31.13;4.07;;;;;;;;;;5142581;27;20066;-60
2022/06/19 12:16:01;;;;;;;6.03;2.00;;;;;;;;;;5137708;27;20077;-59
2022/06/19 12:18:27;;;;;;;4.60;2.47;;;;;;;;;;5142057;27;20393;-60
2022/06/19 12:21:01;;;;;;;11.10;5.25;;;;;;;;;;5143034;27;20046;-60
2022/06/19 12:23:29;;;;;;;10.70;3.25;;;;;;;;;;5141299;27;20148;-60
2022/06/19 12:26:00;;;;;;;7.07;2.38;;;;;;;;;;5139400;27;20047;-59
2022/06/19 12:28:55;;;;;;;13.73;2.75;;;;;;;;;;5144400;27;20505;-59
2022/06/19 12:31:26;;;;;;;5.50;2.42;;;;;;;;;;5113884;27;20375;-60
2022/06/19 12:34:01;;;;;;;11.30;3.33;;;;;;;;;;5142736;27;20702;-60
2022/06/19 12:36:28;;;;;;;4.20;2.45;;;;;;;;;;5141640;27;20149;-59
2022/06/19 12:38:53;;;;;;;3.35;1.95;;;;;;;;;;5140896;27;20062;-59
2022/06/19 12:41:26;;;;;;;9.30;2.78;;;;;;;;;;5139349;27;20047;-59
2022/06/19 12:44:04;;;;;;;4.90;1.73;;;;;;;;;;5139408;27;20155;-60
2022/06/19 12:46:41;;;;;;;4.43;2.20;;;;;;;;;;5138593;27;20043;-60
2022/06/19 12:49:15;;;;;;;2.72;2.05;;;;;;;;;;5138947;27;20036;-60
2022/06/19 12:51:49;;;;;;;7.38;3.05;;;;;;;;;;5138442;27;20046;-59
2022/06/19 12:54:15;;;;;;;1.60;1.27;;;;;;;;;;5138579;27;20122;-59
2022/06/19 12:56:40;;;;;;;2.67;1.63;;;;;;;;;;5141354;27;20137;-59
2022/06/19 12:59:17;;;;;;;4.68;2.25;;;;;;;;;;5139205;27;20119;-60
2022/06/19 13:02:00;;;;;;;7.78;1.92;;;;;;;;;;5140241;27;20548;-60
2022/06/19 13:04:25;;;;;;;5.10;1.85;;;;;;;;;;5140331;27;20084;-60
2022/06/19 13:06:53;;;;;;;15.07;4.07;;;;;;;;;;5142501;27;20522;-59
2022/06/19 13:09:19;;;;;;;9.60;2.75;;;;;;;;;;5136231;27;20082;-59
2022/06/19 13:11:44;;;;;;;7.35;2.65;;;;;;;;;;5138846;27;20114;-60
2022/06/19 13:14:12;;;;;;;5.22;2.03;;;;;;;;;;5139477;27;20494;-59
2022/06/19 13:16:41;;;;;;;7.20;3.72;;;;;;;;;;5141076;27;20074;-60
2022/06/19 13:19:24;;;;;;;20.75;2.53;;;;;;;;;;5136038;27;20057;-59
2022/06/19 13:21:57;;;;;;;7.25;1.35;;;;;;;;;;5141798;27;20031;-60
2022/06/19 13:24:22;;;;;;;5.18;2.55;;;;;;;;;;5143380;27;20038;-60
2022/06/19 13:27:10;;;;;;;4.82;2.13;;;;;;;;;;5140426;27;20047;-59
2022/06/19 13:29:42;;;;;;;2.70;2.20;;;;;;;;;;5140563;27;20038;-60
2022/06/19 13:32:07;;;;;;;6.43;2.10;;;;;;;;;;5137585;27;20043;-59
2022/06/19 13:34:35;;;;;;;2.03;1.48;;;;;;;;;;5137492;27;20042;-60
2022/06/19 13:37:06;;;;;;;6.97;2.08;;;;;;;;;;5140412;27;20043;-60
2022/06/19 13:39:37;;;;;;;1.95;1.45;;;;;;;;;;5139184;27;20066;-58
2022/06/19 13:42:21;;;;;;;3.67;2.22;;;;;;;;;;5136965;27;20050;-58
2022/06/19 13:44:53;;;;;;;11.88;3.35;;;;;;;;;;5140393;27;20130;-59
2022/06/19 13:47:38;;;;;;;83.30;10.30;;;;;;;;;;5139369;27;20057;-58
2022/06/19 13:50:13;;;;;;;9.38;2.90;;;;;;;;;;5138697;27;20051;-59
2022/06/19 13:52:44;;;;;;;2.78;1.63;;;;;;;;;;5140756;27;20193;-58
2022/06/19 13:55:25;;;;;;;3.05;2.75;;;;;;;;;;5141003;27;20078;-58
2022/06/19 13:58:06;;;;;;;10.07;2.97;;;;;;;;;;5138804;27;20095;-59
2022/06/19 14:00:50;;;;;;;12.05;2.42;;;;;;;;;;5132013;27;20096;-59
2022/06/19 14:03:18;;;;;;;13.65;2.60;;;;;;;;;;5139344;27;20065;-59
2022/06/19 14:05:44;;;;;;;5.18;2.15;;;;;;;;;;5140506;27;20122;-59
2022/06/19 14:08:29;;;;;;;5.25;1.85;;;;;;;;;;5140569;27;20129;-59
2022/06/19 14:11:00;;;;;;;14.27;2.08;;;;;;;;;;5137459;27;20043;-58
2022/06/19 14:13:29;;;;;;;5.30;2.80;;;;;;;;;;5138547;27;20405;-59
2022/06/19 14:16:13;;;;;;;3.60;1.63;;;;;;;;;;5135925;27;20047;-59
2022/06/19 14:18:56;;;;;;;3.30;2.25;;;;;;;;;;5139184;27;20047;-59
2022/06/19 14:21:34;;;;;;;24.08;2.50;;;;;;;;;;5135715;27;20459;-59
2022/06/19 14:24:03;;;;;;;5.53;2.42;;;;;;;;;;5135638;27;20042;-57
2022/06/19 14:27:01;;;;;;;3.30;2.35;;;;;;;;;;5136977;27;20106;-58
2022/06/19 14:29:26;;;;;;;4.75;2.22;;;;;;;;;;5036289;27;20039;-59
2022/06/19 14:31:53;;;;;;;8.32;3.30;;;;;;;;;;5135763;27;20135;-59
2022/06/19 14:34:37;;;;;;;3.10;2.00;;;;;;;;;;5143313;27;20053;-59
2022/06/19 14:37:28;;;;;;;30.65;4.63;;;;;;;;;;5138095;27;20050;-59
2022/06/19 14:39:57;;;;;;;9.25;3.15;;;;;;;;;;5113209;27;20039;-59
2022/06/19 14:42:23;;;;;;;9.00;2.70;;;;;;;;;;5138827;27;20046;-59
2022/06/19 14:44:56;;;;;;;12.05;4.18;;;;;;;;;;5137261;27;20039;-59
2022/06/19 14:47:30;;;;;;;11.73;3.45;;;;;;;;;;5136534;27;20512;-59
2022/06/19 14:50:10;;;;;;;7.53;2.47;;;;;;;;;;5141066;27;20051;-59
2022/06/19 14:52:38;;;;;;;5.97;3.65;;;;;;;;;;5137624;27;20115;-59
2022/06/19 14:55:23;;;;;;;11.63;3.13;;;;;;;;;;5143003;27;20861;-59
2022/06/19 14:57:49;;;;;;;3.60;3.03;;;;;;;;;;5141443;27;20059;-59
2022/06/19 15:00:20;;;;;;;7.00;3.28;;;;;;;;;;5141941;27;20039;-59